Time;durP1;ratioP1;P1;durP2;ratioP2;P2;SDS_P1;SDS_P2;PMS_P1;PMS_P2;Temp;Humidity;BMP_temperature;BMP_pressure;BME280_temperature;BME280_humidity;BME280_pressure;Samples;Min_cycle;Max_cycle;Signal;HPM_P1;HPM_P2
2022/08/03 05:20:25;;;;;;;;;;;21.30;93.00;;;;;;10509616;27;20415;-76
2022/08/03 05:25:26;;;;;;;5.47;1.10;;;21.30;93.10;;;;;;10550832;27;20143;-75
2022/08/03 05:30:27;;;;;;;2.55;1.48;;;21.30;92.80;;;;;;10550544;27;20051;-77
2022/08/03 05:36:08;;;;;;;3.92;1.40;;;21.30;92.80;;;;;;10570925;27;20152;-76
2022/08/03 05:42:09;;;;;;;3.08;1.10;;;21.30;93.00;;;;;;10555371;28;20139;-77
2022/08/03 05:48:09;;;;;;;2.55;1.20;;;21.30;93.00;;;;;;10601593;27;20042;-74
2022/08/03 05:54:09;;;;;;;2.95;1.27;;;21.30;93.00;;;;;;10575625;27;20105;-74
2022/08/03 06:00:10;;;;;;;2.28;1.00;;;21.30;93.10;;;;;;10583544;27;20062;-75
2022/08/03 06:06:10;;;;;;;5.15;1.30;;;21.30;93.00;;;;;;10566689;27;20119;-75
2022/08/03 06:12:10;;;;;;;2.95;1.30;;;21.40;93.00;;;;;;10602963;27;20394;-74
2022/08/03 06:18:11;;;;;;;2.13;0.98;;;21.30;93.00;;;;;;10580709;27;20158;-74
2022/08/03 06:24:11;;;;;;;1.77;1.00;;;21.40;92.90;;;;;;10589878;27;20071;-74
2022/08/03 06:30:12;;;;;;;3.75;1.02;;;21.40;92.90;;;;;;10561767;27;20170;-75
2022/08/03 06:36:12;;;;;;;4.30;1.30;;;21.40;93.10;;;;;;10554702;27;20609;-75
2022/08/03 06:42:13;;;;;;;3.78;1.25;;;21.40;93.10;;;;;;10550747;27;20061;-75
2022/08/03 06:48:19;;;;;;;3.10;1.10;;;21.40;93.00;;;;;;10583019;27;20039;-74
2022/08/03 06:54:21;;;;;;;4.72;1.63;;;21.40;93.20;;;;;;10562383;28;20377;-74
2022/08/03 07:00:20;;;;;;;5.13;1.50;;;21.40;93.30;;;;;;10567519;28;20055;-75
2022/08/03 07:06:21;;;;;;;3.38;1.20;;;21.40;93.20;;;;;;10572506;28;20050;-75
2022/08/03 07:12:22;;;;;;;2.15;1.17;;;21.50;93.20;;;;;;10589463;28;20039;-75
2022/08/03 07:18:23;;;;;;;3.17;1.50;;;21.50;93.20;;;;;;10629097;27;20035;-75
2022/08/03 07:23:44;;;;;;;3.95;1.38;;;21.50;93.10;;;;;;10567805;28;20585;-75
2022/08/03 07:28:45;;;;;;;2.80;1.17;;;21.50;92.90;;;;;;10540587;28;20109;-75
2022/08/03 07:33:47;;;;;;;6.38;1.50;;;21.50;92.90;;;;;;10522336;28;20458;-75
2022/08/03 07:38:47;;;;;;;4.45;1.50;;;21.60;92.90;;;;;;10514793;28;20038;-75
2022/08/03 07:43:54;;;;;;;4.65;1.40;;;21.60;92.90;;;;;;10515704;28;20101;-75
2022/08/03 07:49:00;;;;;;;3.72;1.27;;;21.60;92.90;;;;;;10500219;28;20283;-75
2022/08/03 07:54:10;;;;;;;5.03;1.77;;;21.60;92.90;;;;;;10544891;27;20046;-75
2022/08/03 07:59:11;;;;;;;4.05;1.35;;;21.60;92.90;;;;;;10535714;27;20089;-75
2022/08/03 08:04:12;;;;;;;2.15;1.42;;;21.70;92.90;;;;;;10524066;27;20045;-75
2022/08/03 08:09:14;;;;;;;5.43;1.60;;;21.70;92.90;;;;;;10516692;28;20124;-75
2022/08/03 08:14:14;;;;;;;5.38;1.50;;;21.70;92.90;;;;;;10524177;27;20743;-74
2022/08/03 08:19:15;;;;;;;4.65;1.38;;;21.80;93.00;;;;;;10525719;27;20062;-75
2022/08/03 08:24:16;;;;;;;3.95;1.50;;;21.80;92.90;;;;;;10534484;28;20415;-75
2022/08/03 08:29:18;;;;;;;3.63;1.90;;;21.80;92.90;;;;;;10509587;28;20138;-75
2022/08/03 08:34:20;;;;;;;5.55;1.50;;;21.90;93.00;;;;;;10520932;28;20071;-75
2022/08/03 08:39:20;;;;;;;3.38;1.45;;;21.90;93.00;;;;;;10527724;28;20056;-75
2022/08/03 08:44:21;;;;;;;7.10;1.67;;;22.00;93.00;;;;;;10532614;27;20123;-75
2022/08/03 08:49:26;;;;;;;9.93;2.78;;;22.00;93.00;;;;;;10543205;27;20040;-75
2022/08/03 08:54:31;;;;;;;7.35;1.48;;;22.00;93.00;;;;;;10500395;28;20150;-75
2022/08/03 08:59:35;;;;;;;5.60;1.70;;;22.10;93.00;;;;;;10523751;28;20122;-74
2022/08/03 09:04:38;;;;;;;4.65;1.50;;;22.20;93.10;;;;;;10524652;28;20047;-75
2022/08/03 09:09:39;;;;;;;3.45;1.40;;;22.20;93.10;;;;;;10519387;27;20114;-75
2022/08/03 09:15:20;;;;;;;5.88;1.55;;;22.30;93.10;;;;;;10513567;28;20051;-75
2022/08/03 09:21:18;;;;;;;3.63;1.55;;;22.30;93.30;;;;;;10508367;28;20100;-75
2022/08/03 09:27:18;;;;;;;3.03;1.70;;;22.40;93.30;;;;;;10517391;28;20048;-75
2022/08/03 09:33:25;;;;;;;5.60;1.80;;;22.40;93.30;;;;;;10520252;28;20109;-75
2022/08/03 09:39:26;;;;;;;3.78;1.80;;;22.50;93.40;;;;;;10514620;28;20044;-75
2022/08/03 09:45:28;;;;;;;4.53;1.58;;;22.60;93.40;;;;;;10517891;28;20028;-75
2022/08/03 09:50:49;;;;;;;7.80;2.00;;;22.60;93.40;;;;;;10522650;28;20442;-75
2022/08/03 09:57:01;;;;;;;6.63;2.00;;;23.20;93.50;;;;;;10531228;27;20135;-75
2022/08/03 10:03:02;;;;;;;5.07;1.67;;;22.70;93.30;;;;;;10517859;28;20046;-75
2022/08/03 10:09:02;;;;;;;7.28;2.85;;;22.80;93.30;;;;;;10514836;28;20046;-76
2022/08/03 10:15:03;;;;;;;6.30;1.92;;;22.90;93.30;;;;;;10518901;27;20040;-74
2022/08/03 10:21:02;;;;;;;6.75;1.67;;;23.00;93.30;;;;;;10514110;28;20106;-75
2022/08/03 10:53:49;;;;;;;8.13;2.42;;;23.30;93.10;;;;;;10558785;27;20105;-74
2022/08/03 10:58:53;;;;;;;6.63;1.92;;;23.40;92.80;;;;;;10598091;27;20054;-75
2022/08/03 11:03:54;;;;;;;7.43;2.15;;;23.40;92.80;;;;;;10584497;27;20089;-75
2022/08/03 11:09:17;;;;;;;3.55;1.92;;;23.50;92.80;;;;;;10597811;27;20071;-74
2022/08/03 11:14:20;;;;;;;6.43;2.05;;;23.60;92.80;;;;;;10603979;27;20133;-75
2022/08/03 11:19:41;;;;;;;5.88;2.20;;;23.70;92.70;;;;;;10575407;27;20038;-75
2022/08/03 11:24:42;;;;;;;7.22;1.83;;;23.70;92.60;;;;;;10610125;27;20027;-74
2022/08/03 11:30:28;;;;;;;6.03;2.20;;;23.80;92.50;;;;;;10600560;27;20031;-74
2022/08/03 11:35:35;;;;;;;6.07;2.28;;;23.90;92.60;;;;;;10606053;27;20043;-74
2022/08/03 11:40:46;;;;;;;5.47;1.90;;;24.00;92.40;;;;;;10599382;27;20130;-75
2022/08/03 11:45:58;;;;;;;8.50;2.42;;;24.10;92.60;;;;;;10591506;27;20049;-75
2022/08/03 11:51:00;;;;;;;9.13;2.00;;;24.10;92.30;;;;;;10580506;27;20516;-75
2022/08/03 11:56:41;;;;;;;7.95;1.92;;;24.20;92.20;;;;;;10581011;27;20043;-74
2022/08/03 12:02:50;;;;;;;6.90;2.10;;;24.30;92.20;;;;;;10587814;27;20027;-74
2022/08/03 12:08:52;;;;;;;4.10;1.98;;;24.30;92.10;;;;;;10603599;27;20039;-74
2022/08/03 12:14:53;;;;;;;4.75;1.65;;;24.40;92.00;;;;;;10584598;27;20637;-74
2022/08/03 12:20:53;;;;;;;6.47;1.70;;;24.50;91.90;;;;;;10586585;27;20561;-83
2022/08/03 12:27:06;;;;;;;5.18;1.90;;;24.60;91.80;;;;;;10598021;27;20541;-76
2022/08/03 12:33:06;;;;;;;9.07;1.63;;;24.70;91.40;;;;;;10629305;27;20043;-76
2022/08/03 12:39:07;;;;;;;4.03;1.48;;;24.80;91.40;;;;;;10626255;27;20042;-76
2022/08/03 12:45:10;;;;;;;6.60;1.92;;;24.90;91.30;;;;;;10637141;27;20035;-75
2022/08/03 12:51:11;;;;;;;6.78;2.20;;;25.00;91.20;;;;;;10631940;27;20111;-75
2022/08/03 12:56:57;;;;;;;6.80;1.92;;;25.10;91.10;;;;;;10611319;27;20055;-75
2022/08/03 13:02:58;;;;;;;3.55;1.60;;;25.20;91.10;;;;;;10633050;27;20038;-75
2022/08/03 13:08:58;;;;;;;6.97;1.73;;;25.20;90.90;;;;;;10646366;27;20042;-75
2022/08/03 13:14:59;;;;;;;4.65;1.98;;;25.30;90.90;;;;;;10638598;27;20457;-75
2022/08/03 13:20:59;;;;;;;5.50;1.63;;;25.30;90.90;;;;;;10635875;27;20067;-75
2022/08/03 13:27:01;;;;;;;5.95;1.70;;;25.40;90.90;;;;;;10633096;27;20600;-76
2022/08/03 13:33:00;;;;;;;4.28;1.70;;;25.50;91.00;;;;;;10631539;27;20535;-75
2022/08/03 13:39:01;;;;;;;6.78;2.80;;;25.60;90.70;;;;;;10634990;27;20047;-75
2022/08/03 13:45:01;;;;;;;4.28;1.48;;;25.70;90.60;;;;;;10632124;27;20380;-75
2022/08/03 15:33:52;;;;;;;5.78;2.30;;;27.40;88.30;;;;;;10516097;28;20059;-85
2022/08/03 15:38:52;;;;;;;7.32;2.17;;;27.50;88.10;;;;;;10543384;27;20153;-77
2022/08/03 15:43:53;;;;;;;4.18;1.85;;;27.60;87.90;;;;;;10581027;27;20031;-81
2022/08/03 15:48:54;;;;;;;4.43;1.90;;;27.70;87.90;;;;;;10589212;27;20047;-77
2022/08/03 15:54:34;;;;;;;5.72;2.30;;;27.80;87.70;;;;;;10570022;27;20568;-86
2022/08/03 16:00:35;;;;;;;8.57;2.70;;;27.90;86.40;;;;;;10572061;27;20079;-78
2022/08/03 16:06:35;;;;;;;6.25;3.08;;;27.90;85.80;;;;;;10579915;27;20957;-79
2022/08/03 16:12:36;;;;;;;7.97;3.35;;;28.10;84.40;;;;;;10584414;27;20035;-84
2022/08/03 16:17:57;;;;;;;5.15;3.17;;;28.10;84.50;;;;;;10570784;27;20169;-82
2022/08/03 16:22:58;;;;;;;9.60;2.88;;;28.10;85.10;;;;;;10582764;27;20857;-83
2022/08/03 16:27:59;;;;;;;7.72;2.30;;;27.90;85.00;;;;;;10552108;27;20038;-84
2022/08/03 16:33:00;;;;;;;6.30;2.50;;;27.80;85.20;;;;;;10547461;27;20183;-83
2022/08/03 16:38:01;;;;;;;6.07;1.60;;;27.80;85.20;;;;;;10598676;27;20058;-83
2022/08/03 16:43:13;;;;;;;5.93;1.80;;;27.70;84.30;;;;;;10624579;27;20119;-83
2022/08/03 16:48:14;;;;;;;5.97;2.08;;;27.60;83.80;;;;;;10617245;27;20037;-82
2022/08/03 16:53:16;;;;;;;6.53;1.90;;;27.50;84.60;;;;;;10621275;27;20039;-87
2022/08/03 16:58:18;;;;;;;4.68;1.75;;;27.40;84.40;;;;;;10623625;27;20986;-86
2022/08/03 17:03:21;;;;;;;5.45;1.85;;;27.30;84.90;;;;;;10616581;27;20889;-77
2022/08/03 17:08:22;;;;;;;4.43;1.90;;;27.30;85.10;;;;;;10628474;27;20034;-77
2022/08/03 17:13:28;;;;;;;5.68;1.88;;;27.20;85.20;;;;;;10627464;27;20034;-78
2022/08/03 17:18:36;;;;;;;6.25;1.77;;;27.20;84.90;;;;;;10627066;27;20049;-80
2022/08/03 17:23:43;;;;;;;6.82;2.00;;;27.10;85.10;;;;;;10604586;27;20031;-80
2022/08/03 17:28:48;;;;;;;6.72;1.95;;;27.00;85.40;;;;;;10594219;27;20029;-79
2022/08/03 17:34:00;;;;;;;6.97;1.80;;;27.00;85.90;;;;;;10602078;27;20545;-79
2022/08/03 17:39:14;;;;;;;5.22;1.48;;;26.80;84.80;;;;;;10622737;27;20834;-81
2022/08/03 17:44:15;;;;;;;5.82;1.90;;;26.80;85.00;;;;;;10629083;27;20034;-78
2022/08/03 17:49:16;;;;;;;7.68;2.08;;;26.80;84.70;;;;;;10623326;27;20065;-78
2022/08/03 17:54:28;;;;;;;3.72;1.73;;;26.70;84.60;;;;;;10585981;27;20384;-78
2022/08/03 17:59:45;;;;;;;9.38;1.95;;;26.70;84.70;;;;;;10629162;27;20926;-79
2022/08/03 18:05:07;;;;;;;7.30;1.92;;;26.60;84.70;;;;;;10610989;27;20568;-81
2022/08/03 18:10:15;;;;;;;13.75;1.67;;;26.50;84.10;;;;;;10589756;27;20236;-74
2022/08/03 18:15:26;;;;;;;4.45;1.60;;;26.40;85.60;;;;;;10630745;27;20045;-82
2022/08/03 18:20:28;;;;;;;6.35;1.52;;;26.30;85.60;;;;;;10597268;27;20588;-77
2022/08/03 18:25:30;;;;;;;5.72;1.50;;;26.20;86.20;;;;;;10618540;27;20698;-76
2022/08/03 18:30:32;;;;;;;10.07;2.13;;;26.10;86.70;;;;;;10600701;27;20046;-75
2022/08/03 18:35:34;;;;;;;8.50;1.80;;;26.20;86.90;;;;;;10620156;27;20129;-77
2022/08/03 18:40:35;;;;;;;9.07;1.73;;;26.10;86.20;;;;;;10637990;27;20274;-77
2022/08/03 18:45:53;;;;;;;4.32;1.92;;;25.80;86.40;;;;;;10612665;27;20842;-75
2022/08/03 18:51:10;;;;;;;5.53;1.33;;;26.00;86.50;;;;;;10619577;27;20042;-75
2022/08/03 18:56:33;;;;;;;5.87;1.50;;;25.80;86.50;;;;;;10618176;27;20042;-76
2022/08/03 19:02:33;;;;;;;6.07;1.60;;;25.80;86.20;;;;;;10616973;27;20030;-76
2022/08/03 19:08:34;;;;;;;8.68;1.70;;;25.70;86.40;;;;;;10620268;27;20080;-76
2022/08/03 19:14:34;;;;;;;4.35;1.38;;;25.60;86.60;;;;;;10616959;27;20030;-77
2022/08/03 19:20:38;;;;;;;4.88;1.48;;;25.50;86.60;;;;;;10619480;27;20045;-76
2022/08/03 19:26:39;;;;;;;5.13;1.70;;;25.50;87.00;;;;;;10614656;27;20248;-76
2022/08/03 19:32:40;;;;;;;7.40;1.73;;;25.30;87.70;;;;;;10607159;27;20843;-77
2022/08/03 19:38:42;;;;;;;6.88;1.63;;;25.20;88.40;;;;;;10613889;27;20058;-76
2022/08/03 19:44:42;;;;;;;4.32;1.65;;;25.10;88.60;;;;;;10604754;27;20031;-76
2022/08/03 19:50:25;;;;;;;6.20;1.48;;;25.00;89.10;;;;;;10585435;27;20942;-74
2022/08/03 19:56:26;;;;;;;8.48;1.75;;;24.90;89.70;;;;;;10661153;27;20057;-75
2022/08/03 20:02:26;;;;;;;5.10;1.35;;;24.70;90.00;;;;;;10691213;27;20038;-76
2022/08/03 20:08:27;;;;;;;5.18;1.17;;;24.60;90.00;;;;;;10684523;27;20087;-74
2022/08/03 20:14:27;;;;;;;3.90;1.55;;;24.50;90.10;;;;;;10701810;27;20041;-74
2022/08/03 20:19:58;;;;;;;9.50;1.95;;;24.50;90.10;;;;;;10689774;27;20043;-76
2022/08/03 21:24:29;;;;;;;3.72;1.40;;;24.80;89.90;;;;;;10640905;27;20554;-78
2022/08/03 21:29:30;;;;;;;2.85;1.33;;;24.80;89.70;;;;;;10624709;27;21809;-77
2022/08/03 21:34:33;;;;;;;2.90;1.35;;;24.80;89.80;;;;;;10644165;27;20031;-77
2022/08/03 21:39:34;;;;;;;3.67;1.27;;;24.70;89.90;;;;;;10628009;27;20122;-77
2022/08/03 21:44:36;;;;;;;3.30;1.50;;;24.70;89.90;;;;;;10609105;27;20114;-76
2022/08/03 21:49:37;;;;;;;6.68;1.67;;;24.70;90.00;;;;;;10640055;27;20066;-76
2022/08/03 21:54:40;;;;;;;4.55;1.63;;;24.70;90.00;;;;;;10631759;27;20039;-76
2022/08/03 21:59:49;;;;;;;3.05;1.60;;;24.70;90.00;;;;;;10645329;27;20075;-76
2022/08/03 22:04:53;;;;;;;3.05;1.40;;;24.60;90.00;;;;;;10633374;27;20031;-77
2022/08/03 22:09:59;;;;;;;3.33;1.30;;;24.60;90.10;;;;;;10624642;27;20508;-76
2022/08/03 22:15:02;;;;;;;3.08;1.38;;;24.60;90.10;;;;;;10619460;27;20035;-76
2022/08/03 22:20:08;;;;;;;3.92;1.60;;;24.50;90.10;;;;;;10643949;27;20145;-76
2022/08/03 22:25:14;;;;;;;3.00;1.65;;;24.50;90.10;;;;;;10634599;27;20053;-76
2022/08/03 22:30:17;;;;;;;4.90;1.58;;;24.50;90.40;;;;;;10610508;27;20031;-76
2022/08/03 22:35:20;;;;;;;4.03;1.60;;;24.50;90.20;;;;;;10630625;27;20027;-76
2022/08/03 22:40:21;;;;;;;2.38;1.48;;;24.50;90.30;;;;;;10611077;27;20397;-76
2022/08/03 22:45:21;;;;;;;4.38;1.70;;;24.40;90.20;;;;;;10628464;27;20485;-76
2022/08/03 22:50:24;;;;;;;2.45;1.42;;;24.40;90.30;;;;;;10633041;27;20047;-76
2022/08/03 22:55:26;;;;;;;5.55;1.48;;;24.40;90.30;;;;;;10635519;27;20026;-76
2022/08/03 23:00:32;;;;;;;4.13;1.35;;;24.40;90.30;;;;;;10641731;27;20062;-76
2022/08/03 23:05:34;;;;;;;2.97;1.63;;;24.30;90.30;;;;;;10613279;27;20530;-76
2022/08/03 23:10:38;;;;;;;6.10;1.70;;;24.30;90.40;;;;;;10625443;27;20528;-76
2022/08/03 23:15:39;;;;;;;2.95;1.60;;;24.30;90.40;;;;;;10605491;27;20221;-76
2022/08/03 23:20:41;;;;;;;3.60;1.55;;;24.20;90.40;;;;;;10658042;27;20038;-77
2022/08/03 23:25:42;;;;;;;2.17;1.65;;;24.20;90.40;;;;;;10648020;27;20071;-77
2022/08/03 23:30:48;;;;;;;5.72;2.20;;;24.20;90.50;;;;;;10614161;27;20035;-76
2022/08/03 23:36:00;;;;;;;2.75;1.42;;;24.20;90.50;;;;;;10637383;27;20028;-76
2022/08/03 23:41:02;;;;;;;2.92;1.40;;;24.10;90.50;;;;;;10636193;27;20040;-76
2022/08/03 23:46:05;;;;;;;3.72;1.60;;;24.10;90.60;;;;;;10631888;27;20049;-76
2022/08/03 23:51:12;;;;;;;4.43;1.45;;;24.10;90.60;;;;;;10659258;27;20023;-76
2022/08/03 23:56:51;;;;;;;3.53;1.65;;;24.10;90.60;;;;;;10644359;27;20652;-76
